sensor_id;sensor_type;location;lat;lon;timestamp;pressure;altitude;pressure_sealevel;temperature
40199;BMP280;25906;43.536;26.068;2023-01-28T00:01:41;98026.38;;;0.42
40199;BMP280;25906;43.536;26.068;2023-01-28T00:04:26;98025.34;;;0.45
40199;BMP280;25906;43.536;26.068;2023-01-28T00:07:12;98028.56;;;0.69
40199;BMP280;25906;43.536;26.068;2023-01-28T00:09:57;98019.69;;;0.36
40199;BMP280;25906;43.536;26.068;2023-01-28T00:12:43;98030.75;;;0.08
40199;BMP280;25906;43.536;26.068;2023-01-28T00:15:29;98032.53;;;0.19
40199;BMP280;25906;43.536;26.068;2023-01-28T00:18:14;98030.31;;;0.23
40199;BMP280;25906;43.536;26.068;2023-01-28T00:21:02;98042.69;;;0.64
40199;BMP280;25906;43.536;26.068;2023-01-28T00:23:53;98038.88;;;0.47
40199;BMP280;25906;43.536;26.068;2023-01-28T00:26:39;98052.78;;;0.40
40199;BMP280;25906;43.536;26.068;2023-01-28T00:29:24;98042.63;;;0.39
40199;BMP280;25906;43.536;26.068;2023-01-28T00:32:09;98037.78;;;0.24
40199;BMP280;25906;43.536;26.068;2023-01-28T00:34:55;98052.19;;;0.29
40199;BMP280;25906;43.536;26.068;2023-01-28T00:37:41;98043.44;;;0.34
40199;BMP280;25906;43.536;26.068;2023-01-28T00:40:26;98046.88;;;0.47
40199;BMP280;25906;43.536;26.068;2023-01-28T00:43:12;98048.31;;;0.61
40199;BMP280;25906;43.536;26.068;2023-01-28T00:45:57;98053.25;;;0.57
40199;BMP280;25906;43.536;26.068;2023-01-28T00:48:44;98049.00;;;0.49
40199;BMP280;25906;43.536;26.068;2023-01-28T00:51:29;98057.00;;;0.49
40199;BMP280;25906;43.536;26.068;2023-01-28T00:54:15;98049.34;;;0.27
40199;BMP280;25906;43.536;26.068;2023-01-28T00:57:00;98056.75;;;0.34
40199;BMP280;25906;43.536;26.068;2023-01-28T00:59:46;98056.88;;;0.41
40199;BMP280;25906;43.536;26.068;2023-01-28T01:02:31;98058.63;;;0.20
40199;BMP280;25906;43.536;26.068;2023-01-28T01:05:17;98062.41;;;0.25
40199;BMP280;25906;43.536;26.068;2023-01-28T01:08:03;98063.47;;;0.53
40199;BMP280;25906;43.536;26.068;2023-01-28T01:10:48;98065.75;;;0.75
40199;BMP280;25906;43.536;26.068;2023-01-28T01:13:35;98067.72;;;1.00
40199;BMP280;25906;43.536;26.068;2023-01-28T01:16:22;98070.53;;;0.63
40199;BMP280;25906;43.536;26.068;2023-01-28T01:19:08;98076.13;;;0.47
40199;BMP280;25906;43.536;26.068;2023-01-28T01:21:55;98076.72;;;0.71
40199;BMP280;25906;43.536;26.068;2023-01-28T01:24:41;98072.44;;;0.81
40199;BMP280;25906;43.536;26.068;2023-01-28T01:27:26;98072.06;;;0.28
40199;BMP280;25906;43.536;26.068;2023-01-28T01:30:12;98082.59;;;0.52
40199;BMP280;25906;43.536;26.068;2023-01-28T01:32:57;98078.09;;;0.28
40199;BMP280;25906;43.536;26.068;2023-01-28T01:35:43;98078.94;;;0.55
40199;BMP280;25906;43.536;26.068;2023-01-28T01:38:28;98085.47;;;0.54
40199;BMP280;25906;43.536;26.068;2023-01-28T01:41:25;98078.34;;;0.43
40199;BMP280;25906;43.536;26.068;2023-01-28T01:44:45;98087.91;;;0.52
40199;BMP280;25906;43.536;26.068;2023-01-28T01:47:47;98094.91;;;0.55
40199;BMP280;25906;43.536;26.068;2023-01-28T01:50:50;98098.00;;;0.71
40199;BMP280;25906;43.536;26.068;2023-01-28T01:53:41;98098.72;;;0.72
40199;BMP280;25906;43.536;26.068;2023-01-28T01:56:30;98093.94;;;0.83
40199;BMP280;25906;43.536;26.068;2023-01-28T01:59:21;98098.50;;;1.14
40199;BMP280;25906;43.536;26.068;2023-01-28T02:02:09;98097.22;;;0.89
40199;BMP280;25906;43.536;26.068;2023-01-28T02:04:55;98103.03;;;0.75
40199;BMP280;25906;43.536;26.068;2023-01-28T02:07:42;98099.78;;;0.19
40199;BMP280;25906;43.536;26.068;2023-01-28T02:10:29;98099.81;;;0.63
40199;BMP280;25906;43.536;26.068;2023-01-28T02:13:16;98103.28;;;0.58
40199;BMP280;25906;43.536;26.068;2023-01-28T02:16:03;98101.34;;;0.28
40199;BMP280;25906;43.536;26.068;2023-01-28T02:18:49;98107.41;;;0.10
40199;BMP280;25906;43.536;26.068;2023-01-28T02:24:52;98107.78;;;0.19
40199;BMP280;25906;43.536;26.068;2023-01-28T02:36:54;98124.00;;;0.16
40199;BMP280;25906;43.536;26.068;2023-01-28T02:39:46;98123.00;;;0.19
40199;BMP280;25906;43.536;26.068;2023-01-28T02:42:34;98121.53;;;0.36
40199;BMP280;25906;43.536;26.068;2023-01-28T02:45:24;98130.47;;;0.20
40199;BMP280;25906;43.536;26.068;2023-01-28T02:48:30;98131.50;;;0.17
40199;BMP280;25906;43.536;26.068;2023-01-28T02:54:19;98136.34;;;0.32
40199;BMP280;25906;43.536;26.068;2023-01-28T02:57:18;98140.88;;;0.37
40199;BMP280;25906;43.536;26.068;2023-01-28T03:00:19;98143.81;;;0.52
40199;BMP280;25906;43.536;26.068;2023-01-28T03:06:30;98148.03;;;0.91
40199;BMP280;25906;43.536;26.068;2023-01-28T03:09:19;98151.41;;;0.92
40199;BMP280;25906;43.536;26.068;2023-01-28T03:12:10;98151.53;;;0.99
40199;BMP280;25906;43.536;26.068;2023-01-28T03:15:24;98154.94;;;1.00
40199;BMP280;25906;43.536;26.068;2023-01-28T03:18:44;98156.53;;;0.90
40199;BMP280;25906;43.536;26.068;2023-01-28T03:21:51;98153.50;;;0.99
40199;BMP280;25906;43.536;26.068;2023-01-28T03:24:55;98155.25;;;0.47
40199;BMP280;25906;43.536;26.068;2023-01-28T03:28:03;98151.09;;;0.51
40199;BMP280;25906;43.536;26.068;2023-01-28T03:31:11;98149.47;;;0.61
40199;BMP280;25906;43.536;26.068;2023-01-28T03:34:16;98147.44;;;0.54
40199;BMP280;25906;43.536;26.068;2023-01-28T03:37:21;98154.34;;;0.07
40199;BMP280;25906;43.536;26.068;2023-01-28T03:40:08;98156.59;;;0.22
40199;BMP280;25906;43.536;26.068;2023-01-28T03:42:53;98160.75;;;0.17
40199;BMP280;25906;43.536;26.068;2023-01-28T03:45:41;98158.59;;;0.16
40199;BMP280;25906;43.536;26.068;2023-01-28T03:48:27;98162.13;;;0.24
40199;BMP280;25906;43.536;26.068;2023-01-28T03:51:13;98158.22;;;0.06
40199;BMP280;25906;43.536;26.068;2023-01-28T03:53:59;98166.41;;;0.08
40199;BMP280;25906;43.536;26.068;2023-01-28T03:56:45;98161.03;;;0.14
40199;BMP280;25906;43.536;26.068;2023-01-28T03:59:31;98164.53;;;0.03
40199;BMP280;25906;43.536;26.068;2023-01-28T04:02:20;98171.44;;;0.12
40199;BMP280;25906;43.536;26.068;2023-01-28T04:05:07;98168.75;;;-0.06
40199;BMP280;25906;43.536;26.068;2023-01-28T04:07:56;98176.50;;;0.34
40199;BMP280;25906;43.536;26.068;2023-01-28T04:10:42;98179.72;;;0.27
40199;BMP280;25906;43.536;26.068;2023-01-28T04:13:28;98177.28;;;0.47
40199;BMP280;25906;43.536;26.068;2023-01-28T04:16:15;98193.09;;;0.40
40199;BMP280;25906;43.536;26.068;2023-01-28T04:19:01;98184.13;;;0.43
40199;BMP280;25906;43.536;26.068;2023-01-28T04:21:46;98186.63;;;0.35
40199;BMP280;25906;43.536;26.068;2023-01-28T04:24:33;98194.38;;;0.70
40199;BMP280;25906;43.536;26.068;2023-01-28T04:27:18;98191.44;;;0.37
40199;BMP280;25906;43.536;26.068;2023-01-28T04:30:04;98193.81;;;0.40
40199;BMP280;25906;43.536;26.068;2023-01-28T04:32:50;98196.78;;;0.37
40199;BMP280;25906;43.536;26.068;2023-01-28T04:35:35;98198.25;;;0.87
40199;BMP280;25906;43.536;26.068;2023-01-28T04:38:21;98201.50;;;0.93
40199;BMP280;25906;43.536;26.068;2023-01-28T04:41:06;98201.47;;;0.80
40199;BMP280;25906;43.536;26.068;2023-01-28T04:43:52;98204.44;;;0.58
40199;BMP280;25906;43.536;26.068;2023-01-28T04:46:37;98208.22;;;0.50
40199;BMP280;25906;43.536;26.068;2023-01-28T04:49:23;98205.03;;;0.33
40199;BMP280;25906;43.536;26.068;2023-01-28T04:52:08;98201.56;;;0.75
40199;BMP280;25906;43.536;26.068;2023-01-28T04:54:54;98212.78;;;0.68
40199;BMP280;25906;43.536;26.068;2023-01-28T04:57:39;98216.25;;;0.81
40199;BMP280;25906;43.536;26.068;2023-01-28T05:00:25;98217.78;;;0.77
40199;BMP280;25906;43.536;26.068;2023-01-28T05:03:10;98223.53;;;1.12
40199;BMP280;25906;43.536;26.068;2023-01-28T05:05:56;98229.41;;;0.74
40199;BMP280;25906;43.536;26.068;2023-01-28T05:08:41;98231.00;;;0.82
40199;BMP280;25906;43.536;26.068;2023-01-28T05:11:27;98232.09;;;0.74
40199;BMP280;25906;43.536;26.068;2023-01-28T05:14:12;98246.34;;;0.76
40199;BMP280;25906;43.536;26.068;2023-01-28T05:16:58;98239.38;;;1.05
40199;BMP280;25906;43.536;26.068;2023-01-28T05:19:44;98248.25;;;1.25
40199;BMP280;25906;43.536;26.068;2023-01-28T05:22:30;98241.00;;;1.39
40199;BMP280;25906;43.536;26.068;2023-01-28T05:25:15;98245.41;;;1.36
40199;BMP280;25906;43.536;26.068;2023-01-28T05:28:01;98254.38;;;1.52
40199;BMP280;25906;43.536;26.068;2023-01-28T05:30:46;98264.03;;;1.55
40199;BMP280;25906;43.536;26.068;2023-01-28T05:33:32;98269.16;;;1.91
40199;BMP280;25906;43.536;26.068;2023-01-28T05:36:18;98266.81;;;2.01
40199;BMP280;25906;43.536;26.068;2023-01-28T05:39:03;98261.06;;;1.84
40199;BMP280;25906;43.536;26.068;2023-01-28T05:41:49;98264.97;;;1.83
40199;BMP280;25906;43.536;26.068;2023-01-28T05:44:35;98269.47;;;1.62
40199;BMP280;25906;43.536;26.068;2023-01-28T05:47:22;98272.66;;;1.61
40199;BMP280;25906;43.536;26.068;2023-01-28T05:50:08;98281.88;;;1.60
40199;BMP280;25906;43.536;26.068;2023-01-28T05:52:54;98278.41;;;1.65
40199;BMP280;25906;43.536;26.068;2023-01-28T05:55:39;98277.91;;;1.79
40199;BMP280;25906;43.536;26.068;2023-01-28T05:58:25;98280.34;;;1.90
40199;BMP280;25906;43.536;26.068;2023-01-28T06:01:15;98287.63;;;1.77
40199;BMP280;25906;43.536;26.068;2023-01-28T06:04:00;98292.78;;;1.87
40199;BMP280;25906;43.536;26.068;2023-01-28T06:06:46;98294.63;;;1.92
40199;BMP280;25906;43.536;26.068;2023-01-28T06:09:31;98305.31;;;2.05
40199;BMP280;25906;43.536;26.068;2023-01-28T06:12:17;98310.53;;;2.11
40199;BMP280;25906;43.536;26.068;2023-01-28T06:15:03;98306.44;;;1.84
40199;BMP280;25906;43.536;26.068;2023-01-28T06:17:48;98313.94;;;1.98
40199;BMP280;25906;43.536;26.068;2023-01-28T06:20:34;98310.44;;;2.03
40199;BMP280;25906;43.536;26.068;2023-01-28T06:23:19;98317.94;;;2.05
40199;BMP280;25906;43.536;26.068;2023-01-28T06:26:05;98325.53;;;2.14
40199;BMP280;25906;43.536;26.068;2023-01-28T06:28:51;98333.47;;;2.06
40199;BMP280;25906;43.536;26.068;2023-01-28T06:31:36;98328.22;;;2.27
40199;BMP280;25906;43.536;26.068;2023-01-28T06:34:22;98328.53;;;2.23
40199;BMP280;25906;43.536;26.068;2023-01-28T06:37:07;98342.97;;;2.28
40199;BMP280;25906;43.536;26.068;2023-01-28T06:39:53;98332.13;;;2.26
40199;BMP280;25906;43.536;26.068;2023-01-28T06:42:38;98344.09;;;2.32
40199;BMP280;25906;43.536;26.068;2023-01-28T06:45:24;98346.19;;;2.26
40199;BMP280;25906;43.536;26.068;2023-01-28T06:48:10;98349.22;;;2.30
40199;BMP280;25906;43.536;26.068;2023-01-28T06:50:55;98346.66;;;2.50
40199;BMP280;25906;43.536;26.068;2023-01-28T06:53:41;98357.56;;;2.52
40199;BMP280;25906;43.536;26.068;2023-01-28T06:56:27;98355.19;;;2.49
40199;BMP280;25906;43.536;26.068;2023-01-28T06:59:12;98352.00;;;1.99
40199;BMP280;25906;43.536;26.068;2023-01-28T07:01:57;98362.72;;;2.38
40199;BMP280;25906;43.536;26.068;2023-01-28T07:04:43;98358.75;;;2.64
40199;BMP280;25906;43.536;26.068;2023-01-28T07:07:29;98364.22;;;2.46
40199;BMP280;25906;43.536;26.068;2023-01-28T07:10:15;98362.91;;;2.01
40199;BMP280;25906;43.536;26.068;2023-01-28T07:13:00;98371.22;;;2.10
40199;BMP280;25906;43.536;26.068;2023-01-28T07:15:46;98371.25;;;2.23
40199;BMP280;25906;43.536;26.068;2023-01-28T07:18:33;98371.34;;;2.44
40199;BMP280;25906;43.536;26.068;2023-01-28T07:21:18;98365.25;;;2.30
40199;BMP280;25906;43.536;26.068;2023-01-28T07:24:04;98371.09;;;2.16
40199;BMP280;25906;43.536;26.068;2023-01-28T07:26:50;98366.28;;;2.01
40199;BMP280;25906;43.536;26.068;2023-01-28T07:29:35;98373.03;;;1.89
40199;BMP280;25906;43.536;26.068;2023-01-28T07:32:21;98367.72;;;2.28
40199;BMP280;25906;43.536;26.068;2023-01-28T07:35:07;98375.44;;;2.19
40199;BMP280;25906;43.536;26.068;2023-01-28T07:37:56;98366.91;;;2.46
40199;BMP280;25906;43.536;26.068;2023-01-28T07:40:42;98361.75;;;2.09
40199;BMP280;25906;43.536;26.068;2023-01-28T07:43:27;98365.88;;;2.36
40199;BMP280;25906;43.536;26.068;2023-01-28T07:46:13;98362.56;;;2.30
40199;BMP280;25906;43.536;26.068;2023-01-28T07:48:59;98374.31;;;2.53
40199;BMP280;25906;43.536;26.068;2023-01-28T07:51:44;98357.56;;;2.52
40199;BMP280;25906;43.536;26.068;2023-01-28T07:54:34;98357.75;;;2.29
40199;BMP280;25906;43.536;26.068;2023-01-28T07:57:20;98353.03;;;2.47
40199;BMP280;25906;43.536;26.068;2023-01-28T08:00:07;98351.28;;;2.37
40199;BMP280;25906;43.536;26.068;2023-01-28T08:02:59;98349.03;;;2.54
40199;BMP280;25906;43.536;26.068;2023-01-28T08:05:47;98347.69;;;2.47
40199;BMP280;25906;43.536;26.068;2023-01-28T08:08:33;98355.69;;;2.73
40199;BMP280;25906;43.536;26.068;2023-01-28T08:11:18;98354.50;;;2.23
40199;BMP280;25906;43.536;26.068;2023-01-28T08:14:05;98361.78;;;2.35
40199;BMP280;25906;43.536;26.068;2023-01-28T08:16:50;98366.47;;;2.81
40199;BMP280;25906;43.536;26.068;2023-01-28T08:19:36;98362.56;;;2.69
40199;BMP280;25906;43.536;26.068;2023-01-28T08:22:25;98368.25;;;2.99
40199;BMP280;25906;43.536;26.068;2023-01-28T08:25:11;98368.47;;;2.54
40199;BMP280;25906;43.536;26.068;2023-01-28T08:27:57;98371.72;;;2.22
40199;BMP280;25906;43.536;26.068;2023-01-28T08:30:42;98373.81;;;2.42
40199;BMP280;25906;43.536;26.068;2023-01-28T08:33:28;98376.91;;;1.76
40199;BMP280;25906;43.536;26.068;2023-01-28T08:36:14;98373.81;;;1.40
40199;BMP280;25906;43.536;26.068;2023-01-28T08:38:59;98377.78;;;1.65
40199;BMP280;25906;43.536;26.068;2023-01-28T08:41:45;98381.13;;;1.53
40199;BMP280;25906;43.536;26.068;2023-01-28T08:44:31;98382.41;;;2.09
40199;BMP280;25906;43.536;26.068;2023-01-28T08:47:16;98389.59;;;2.01
40199;BMP280;25906;43.536;26.068;2023-01-28T08:50:02;98394.41;;;2.02
40199;BMP280;25906;43.536;26.068;2023-01-28T08:52:48;98391.13;;;2.09
40199;BMP280;25906;43.536;26.068;2023-01-28T08:55:34;98396.59;;;2.04
40199;BMP280;25906;43.536;26.068;2023-01-28T08:58:19;98392.13;;;1.93
40199;BMP280;25906;43.536;26.068;2023-01-28T09:01:04;98383.84;;;2.23
40199;BMP280;25906;43.536;26.068;2023-01-28T09:03:50;98383.97;;;2.43
40199;BMP280;25906;43.536;26.068;2023-01-28T09:06:36;98380.44;;;2.09
40199;BMP280;25906;43.536;26.068;2023-01-28T09:09:21;98384.38;;;2.47
40199;BMP280;25906;43.536;26.068;2023-01-28T09:12:07;98389.63;;;2.27
40199;BMP280;25906;43.536;26.068;2023-01-28T09:14:55;98385.00;;;2.53
40199;BMP280;25906;43.536;26.068;2023-01-28T09:17:40;98381.22;;;2.61
40199;BMP280;25906;43.536;26.068;2023-01-28T09:20:26;98383.34;;;2.63
40199;BMP280;25906;43.536;26.068;2023-01-28T09:23:12;98388.69;;;2.76
40199;BMP280;25906;43.536;26.068;2023-01-28T09:26:01;98388.59;;;2.43
40199;BMP280;25906;43.536;26.068;2023-01-28T09:28:47;98391.38;;;2.63
40199;BMP280;25906;43.536;26.068;2023-01-28T09:31:32;98378.69;;;2.76
40199;BMP280;25906;43.536;26.068;2023-01-28T09:34:18;98384.25;;;2.52
40199;BMP280;25906;43.536;26.068;2023-01-28T09:37:03;98386.03;;;2.24
40199;BMP280;25906;43.536;26.068;2023-01-28T09:39:49;98384.69;;;2.31
40199;BMP280;25906;43.536;26.068;2023-01-28T09:45:57;98394.19;;;2.65
40199;BMP280;25906;43.536;26.068;2023-01-28T09:48:46;98393.34;;;3.08
40199;BMP280;25906;43.536;26.068;2023-01-28T09:51:39;98397.72;;;3.19
40199;BMP280;25906;43.536;26.068;2023-01-28T09:54:33;98403.13;;;3.60
40199;BMP280;25906;43.536;26.068;2023-01-28T09:57:24;98405.31;;;3.48
40199;BMP280;25906;43.536;26.068;2023-01-28T10:00:15;98402.31;;;3.31
40199;BMP280;25906;43.536;26.068;2023-01-28T10:03:31;98408.13;;;3.22
40199;BMP280;25906;43.536;26.068;2023-01-28T10:07:15;98405.53;;;3.50
40199;BMP280;25906;43.536;26.068;2023-01-28T10:15:46;98413.16;;;3.66
40199;BMP280;25906;43.536;26.068;2023-01-28T10:21:28;98414.41;;;3.65
40199;BMP280;25906;43.536;26.068;2023-01-28T10:24:33;98420.31;;;3.92
40199;BMP280;25906;43.536;26.068;2023-01-28T10:27:27;98418.06;;;3.55
40199;BMP280;25906;43.536;26.068;2023-01-28T10:35:59;98423.41;;;3.55
40199;BMP280;25906;43.536;26.068;2023-01-28T10:38:45;98418.69;;;3.48
40199;BMP280;25906;43.536;26.068;2023-01-28T10:41:31;98427.88;;;3.73
40199;BMP280;25906;43.536;26.068;2023-01-28T10:44:29;98421.19;;;3.87
40199;BMP280;25906;43.536;26.068;2023-01-28T10:47:26;98427.44;;;4.10
40199;BMP280;25906;43.536;26.068;2023-01-28T10:50:25;98420.41;;;3.99
40199;BMP280;25906;43.536;26.068;2023-01-28T10:53:10;98419.94;;;3.67
40199;BMP280;25906;43.536;26.068;2023-01-28T10:55:57;98418.78;;;3.56
40199;BMP280;25906;43.536;26.068;2023-01-28T10:59:02;98422.19;;;3.76
40199;BMP280;25906;43.536;26.068;2023-01-28T11:01:51;98416.06;;;3.35
40199;BMP280;25906;43.536;26.068;2023-01-28T11:04:37;98416.97;;;3.71
40199;BMP280;25906;43.536;26.068;2023-01-28T11:07:23;98408.97;;;3.78
40199;BMP280;25906;43.536;26.068;2023-01-28T11:10:38;98408.59;;;3.95
40199;BMP280;25906;43.536;26.068;2023-01-28T11:13:27;98407.03;;;3.79
40199;BMP280;25906;43.536;26.068;2023-01-28T11:16:16;98402.63;;;4.09
40199;BMP280;25906;43.536;26.068;2023-01-28T11:19:03;98408.59;;;4.22
40199;BMP280;25906;43.536;26.068;2023-01-28T11:21:53;98405.94;;;4.22
40199;BMP280;25906;43.536;26.068;2023-01-28T11:24:41;98404.25;;;4.40
40199;BMP280;25906;43.536;26.068;2023-01-28T11:27:29;98405.13;;;4.35
40199;BMP280;25906;43.536;26.068;2023-01-28T11:30:25;98401.00;;;4.34
40199;BMP280;25906;43.536;26.068;2023-01-28T11:36:20;98397.22;;;4.02
40199;BMP280;25906;43.536;26.068;2023-01-28T11:39:20;98394.28;;;4.13
40199;BMP280;25906;43.536;26.068;2023-01-28T11:42:24;98400.34;;;4.13
40199;BMP280;25906;43.536;26.068;2023-01-28T11:45:15;98397.34;;;4.24
40199;BMP280;25906;43.536;26.068;2023-01-28T11:48:27;98399.84;;;3.94
40199;BMP280;25906;43.536;26.068;2023-01-28T11:54:34;98397.47;;;4.11
40199;BMP280;25906;43.536;26.068;2023-01-28T12:01:03;98412.94;;;4.25
40199;BMP280;25906;43.536;26.068;2023-01-28T12:10:00;98419.91;;;4.28
40199;BMP280;25906;43.536;26.068;2023-01-28T12:22:09;98420.00;;;4.16
40199;BMP280;25906;43.536;26.068;2023-01-28T12:37:15;98420.53;;;4.42
40199;BMP280;25906;43.536;26.068;2023-01-28T12:41:24;98421.59;;;4.18
40199;BMP280;25906;43.536;26.068;2023-01-28T12:44:00;98426.56;;;4.35
40199;BMP280;25906;43.536;26.068;2023-01-28T12:46:59;98437.69;;;4.46
40199;BMP280;25906;43.536;26.068;2023-01-28T12:49:49;98444.03;;;4.36
40199;BMP280;25906;43.536;26.068;2023-01-28T12:52:47;98433.94;;;4.21
40199;BMP280;25906;43.536;26.068;2023-01-28T12:58:53;98436.13;;;4.51
40199;BMP280;25906;43.536;26.068;2023-01-28T13:01:43;98428.72;;;4.44
40199;BMP280;25906;43.536;26.068;2023-01-28T13:07:51;98436.16;;;4.03
40199;BMP280;25906;43.536;26.068;2023-01-28T13:10:41;98430.03;;;4.22
40199;BMP280;25906;43.536;26.068;2023-01-28T13:13:38;98437.84;;;4.41
40199;BMP280;25906;43.536;26.068;2023-01-28T13:16:26;98441.28;;;4.49
40199;BMP280;25906;43.536;26.068;2023-01-28T13:22:12;98447.09;;;3.92
40199;BMP280;25906;43.536;26.068;2023-01-28T13:25:27;98449.47;;;3.75
40199;BMP280;25906;43.536;26.068;2023-01-28T13:28:29;98446.13;;;4.02
40199;BMP280;25906;43.536;26.068;2023-01-28T13:31:18;98445.16;;;4.13
40199;BMP280;25906;43.536;26.068;2023-01-28T13:34:05;98440.16;;;4.17
40199;BMP280;25906;43.536;26.068;2023-01-28T13:36:51;98449.91;;;4.27
40199;BMP280;25906;43.536;26.068;2023-01-28T13:39:37;98448.81;;;3.82
40199;BMP280;25906;43.536;26.068;2023-01-28T13:42:29;98448.78;;;4.22
40199;BMP280;25906;43.536;26.068;2023-01-28T13:48:14;98451.34;;;4.28
40199;BMP280;25906;43.536;26.068;2023-01-28T13:51:03;98458.47;;;4.25
40199;BMP280;25906;43.536;26.068;2023-01-28T13:54:07;98458.78;;;4.50
40199;BMP280;25906;43.536;26.068;2023-01-28T14:09:26;98465.53;;;3.95
40199;BMP280;25906;43.536;26.068;2023-01-28T14:12:19;98472.91;;;4.50
40199;BMP280;25906;43.536;26.068;2023-01-28T14:15:34;98468.13;;;4.08
40199;BMP280;25906;43.536;26.068;2023-01-28T14:18:28;98462.34;;;3.97
40199;BMP280;25906;43.536;26.068;2023-01-28T14:21:19;98473.16;;;3.91
40199;BMP280;25906;43.536;26.068;2023-01-28T14:24:13;98474.59;;;3.92
40199;BMP280;25906;43.536;26.068;2023-01-28T14:27:08;98478.38;;;3.76
40199;BMP280;25906;43.536;26.068;2023-01-28T14:30:09;98480.28;;;3.68
40199;BMP280;25906;43.536;26.068;2023-01-28T14:32:58;98475.31;;;3.72
40199;BMP280;25906;43.536;26.068;2023-01-28T14:35:45;98481.81;;;3.64
40199;BMP280;25906;43.536;26.068;2023-01-28T14:38:38;98484.25;;;3.75
40199;BMP280;25906;43.536;26.068;2023-01-28T14:41:25;98484.50;;;3.64
40199;BMP280;25906;43.536;26.068;2023-01-28T14:44:26;98482.09;;;3.40
40199;BMP280;25906;43.536;26.068;2023-01-28T14:56:03;98482.06;;;3.53
40199;BMP280;25906;43.536;26.068;2023-01-28T14:58:59;98488.91;;;3.95
40199;BMP280;25906;43.536;26.068;2023-01-28T15:01:46;98488.97;;;3.82
40199;BMP280;25906;43.536;26.068;2023-01-28T15:04:33;98485.25;;;4.05
40199;BMP280;25906;43.536;26.068;2023-01-28T15:07:24;98491.31;;;4.06
40199;BMP280;25906;43.536;26.068;2023-01-28T15:10:16;98494.06;;;3.93
40199;BMP280;25906;43.536;26.068;2023-01-28T15:13:16;98500.19;;;3.80
40199;BMP280;25906;43.536;26.068;2023-01-28T15:16:04;98496.22;;;3.94
40199;BMP280;25906;43.536;26.068;2023-01-28T15:18:50;98498.19;;;3.94
40199;BMP280;25906;43.536;26.068;2023-01-28T15:21:36;98494.31;;;3.82
40199;BMP280;25906;43.536;26.068;2023-01-28T15:24:22;98509.75;;;3.89
40199;BMP280;25906;43.536;26.068;2023-01-28T15:27:27;98508.53;;;3.77
40199;BMP280;25906;43.536;26.068;2023-01-28T15:30:29;98506.28;;;4.01
40199;BMP280;25906;43.536;26.068;2023-01-28T15:33:15;98506.19;;;3.73
40199;BMP280;25906;43.536;26.068;2023-01-28T15:36:01;98512.94;;;4.08
40199;BMP280;25906;43.536;26.068;2023-01-28T15:38:47;98510.22;;;4.00
40199;BMP280;25906;43.536;26.068;2023-01-28T15:41:37;98512.16;;;4.20
40199;BMP280;25906;43.536;26.068;2023-01-28T15:44:41;98516.34;;;4.08
40199;BMP280;25906;43.536;26.068;2023-01-28T15:47:31;98520.47;;;3.89
40199;BMP280;25906;43.536;26.068;2023-01-28T15:50:23;98525.25;;;3.70
40199;BMP280;25906;43.536;26.068;2023-01-28T15:53:13;98523.88;;;3.56
40199;BMP280;25906;43.536;26.068;2023-01-28T15:56:10;98527.66;;;3.61
40199;BMP280;25906;43.536;26.068;2023-01-28T15:59:08;98530.31;;;3.61
40199;BMP280;25906;43.536;26.068;2023-01-28T16:02:16;98533.69;;;3.74
40199;BMP280;25906;43.536;26.068;2023-01-28T16:05:05;98530.75;;;3.52
40199;BMP280;25906;43.536;26.068;2023-01-28T16:07:55;98543.63;;;3.40
40199;BMP280;25906;43.536;26.068;2023-01-28T16:10:50;98544.22;;;3.46
40199;BMP280;25906;43.536;26.068;2023-01-28T16:13:41;98549.25;;;3.62
40199;BMP280;25906;43.536;26.068;2023-01-28T16:16:33;98548.91;;;3.79
40199;BMP280;25906;43.536;26.068;2023-01-28T16:19:40;98549.69;;;3.54
40199;BMP280;25906;43.536;26.068;2023-01-28T16:22:38;98549.34;;;3.70
40199;BMP280;25906;43.536;26.068;2023-01-28T16:25:27;98552.44;;;3.61
40199;BMP280;25906;43.536;26.068;2023-01-28T16:28:19;98556.81;;;3.51
40199;BMP280;25906;43.536;26.068;2023-01-28T16:31:05;98559.03;;;3.73
40199;BMP280;25906;43.536;26.068;2023-01-28T16:33:50;98558.84;;;3.58
40199;BMP280;25906;43.536;26.068;2023-01-28T16:36:36;98557.13;;;3.81
40199;BMP280;25906;43.536;26.068;2023-01-28T16:39:24;98566.44;;;3.67
40199;BMP280;25906;43.536;26.068;2023-01-28T16:42:10;98568.56;;;3.81
40199;BMP280;25906;43.536;26.068;2023-01-28T16:44:56;98568.09;;;3.90
40199;BMP280;25906;43.536;26.068;2023-01-28T16:47:41;98576.47;;;3.87
40199;BMP280;25906;43.536;26.068;2023-01-28T16:50:27;98571.81;;;4.00
40199;BMP280;25906;43.536;26.068;2023-01-28T16:53:19;98576.78;;;4.04
40199;BMP280;25906;43.536;26.068;2023-01-28T16:56:05;98575.47;;;3.64
40199;BMP280;25906;43.536;26.068;2023-01-28T16:58:50;98581.34;;;3.75
40199;BMP280;25906;43.536;26.068;2023-01-28T17:01:36;98587.66;;;3.98
40199;BMP280;25906;43.536;26.068;2023-01-28T17:04:21;98590.88;;;3.97
40199;BMP280;25906;43.536;26.068;2023-01-28T17:07:07;98588.69;;;3.95
40199;BMP280;25906;43.536;26.068;2023-01-28T17:09:53;98581.56;;;3.98
40199;BMP280;25906;43.536;26.068;2023-01-28T17:12:38;98586.75;;;3.96
40199;BMP280;25906;43.536;26.068;2023-01-28T17:15:24;98586.69;;;4.09
40199;BMP280;25906;43.536;26.068;2023-01-28T17:18:10;98587.47;;;4.17
40199;BMP280;25906;43.536;26.068;2023-01-28T17:21:03;98595.38;;;4.02
40199;BMP280;25906;43.536;26.068;2023-01-28T17:23:50;98589.94;;;3.94
40199;BMP280;25906;43.536;26.068;2023-01-28T17:26:36;98593.16;;;4.13
40199;BMP280;25906;43.536;26.068;2023-01-28T17:29:22;98592.50;;;4.00
40199;BMP280;25906;43.536;26.068;2023-01-28T17:32:07;98596.56;;;3.80
40199;BMP280;25906;43.536;26.068;2023-01-28T17:34:53;98609.03;;;3.65
40199;BMP280;25906;43.536;26.068;2023-01-28T17:37:38;98608.03;;;4.01
40199;BMP280;25906;43.536;26.068;2023-01-28T17:40:24;98607.78;;;3.79
40199;BMP280;25906;43.536;26.068;2023-01-28T17:43:09;98611.28;;;3.87
40199;BMP280;25906;43.536;26.068;2023-01-28T17:45:55;98607.19;;;4.06
40199;BMP280;25906;43.536;26.068;2023-01-28T17:48:41;98608.22;;;4.03
40199;BMP280;25906;43.536;26.068;2023-01-28T17:51:28;98609.03;;;3.78
40199;BMP280;25906;43.536;26.068;2023-01-28T17:54:14;98608.91;;;3.83
40199;BMP280;25906;43.536;26.068;2023-01-28T17:57:01;98606.50;;;3.93
40199;BMP280;25906;43.536;26.068;2023-01-28T17:59:46;98611.66;;;3.91
40199;BMP280;25906;43.536;26.068;2023-01-28T18:02:32;98616.28;;;3.90
40199;BMP280;25906;43.536;26.068;2023-01-28T18:05:19;98605.53;;;4.03